sensor_id;sensor_type;location;lat;lon;timestamp;P1;durP1;ratioP1;P2;durP2;ratioP2
52972;SDS011;38837;48.916;2.336;2023-07-13T00:01:14;3.67;;;1.13;;
52972;SDS011;38837;48.916;2.336;2023-07-13T00:03:17;3.37;;;1.60;;
52972;SDS011;38837;48.916;2.336;2023-07-13T00:05:20;4.30;;;1.48;;
52972;SDS011;38837;48.916;2.336;2023-07-13T00:07:22;5.18;;;1.40;;
52972;SDS011;38837;48.916;2.336;2023-07-13T00:09:25;3.13;;;1.10;;
52972;SDS011;38837;48.916;2.336;2023-07-13T00:11:27;4.28;;;1.30;;
52972;SDS011;38837;48.916;2.336;2023-07-13T00:13:29;2.92;;;1.60;;
52972;SDS011;38837;48.916;2.336;2023-07-13T00:15:31;4.28;;;1.50;;
52972;SDS011;38837;48.916;2.336;2023-07-13T00:17:33;3.20;;;1.45;;
52972;SDS011;38837;48.916;2.336;2023-07-13T00:19:35;4.18;;;1.58;;
52972;SDS011;38837;48.916;2.336;2023-07-13T00:21:38;3.63;;;1.30;;
52972;SDS011;38837;48.916;2.336;2023-07-13T00:23:41;4.43;;;1.55;;
52972;SDS011;38837;48.916;2.336;2023-07-13T00:25:44;3.47;;;1.67;;
52972;SDS011;38837;48.916;2.336;2023-07-13T00:27:47;1.75;;;1.10;;
52972;SDS011;38837;48.916;2.336;2023-07-13T00:29:52;8.20;;;1.77;;
52972;SDS011;38837;48.916;2.336;2023-07-13T00:31:54;3.40;;;1.33;;
52972;SDS011;38837;48.916;2.336;2023-07-13T00:33:56;1.70;;;1.00;;
52972;SDS011;38837;48.916;2.336;2023-07-13T00:35:58;3.50;;;1.58;;
52972;SDS011;38837;48.916;2.336;2023-07-13T00:38:05;3.15;;;1.25;;
52972;SDS011;38837;48.916;2.336;2023-07-13T00:40:07;4.45;;;1.50;;
52972;SDS011;38837;48.916;2.336;2023-07-13T00:42:11;2.03;;;1.20;;
52972;SDS011;38837;48.916;2.336;2023-07-13T00:44:14;4.15;;;1.73;;
52972;SDS011;38837;48.916;2.336;2023-07-13T00:46:19;3.55;;;1.42;;
52972;SDS011;38837;48.916;2.336;2023-07-13T00:48:27;3.30;;;1.52;;
52972;SDS011;38837;48.916;2.336;2023-07-13T00:50:35;2.22;;;1.30;;
52972;SDS011;38837;48.916;2.336;2023-07-13T00:52:38;7.28;;;1.45;;
52972;SDS011;38837;48.916;2.336;2023-07-13T00:54:43;4.60;;;1.40;;
52972;SDS011;38837;48.916;2.336;2023-07-13T00:56:48;2.20;;;1.52;;
52972;SDS011;38837;48.916;2.336;2023-07-13T00:58:53;3.90;;;1.52;;
52972;SDS011;38837;48.916;2.336;2023-07-13T01:00:56;5.45;;;1.88;;
52972;SDS011;38837;48.916;2.336;2023-07-13T01:02:58;3.47;;;1.50;;
52972;SDS011;38837;48.916;2.336;2023-07-13T01:05:00;3.78;;;1.27;;
52972;SDS011;38837;48.916;2.336;2023-07-13T01:07:03;4.53;;;2.05;;
52972;SDS011;38837;48.916;2.336;2023-07-13T01:09:06;2.55;;;1.63;;
52972;SDS011;38837;48.916;2.336;2023-07-13T01:11:09;4.22;;;1.70;;
52972;SDS011;38837;48.916;2.336;2023-07-13T01:13:11;3.85;;;1.20;;
52972;SDS011;38837;48.916;2.336;2023-07-13T01:17:37;2.80;;;1.30;;
52972;SDS011;38837;48.916;2.336;2023-07-13T01:19:42;3.45;;;1.90;;
52972;SDS011;38837;48.916;2.336;2023-07-13T01:21:50;5.70;;;1.75;;
52972;SDS011;38837;48.916;2.336;2023-07-13T01:23:53;3.40;;;1.30;;
52972;SDS011;38837;48.916;2.336;2023-07-13T01:25:55;2.95;;;1.63;;
52972;SDS011;38837;48.916;2.336;2023-07-13T01:27:58;3.17;;;1.40;;
52972;SDS011;38837;48.916;2.336;2023-07-13T01:30:00;3.72;;;1.30;;
52972;SDS011;38837;48.916;2.336;2023-07-13T01:32:05;2.13;;;1.27;;
52972;SDS011;38837;48.916;2.336;2023-07-13T01:36:11;6.38;;;1.75;;
52972;SDS011;38837;48.916;2.336;2023-07-13T01:38:14;4.68;;;1.33;;
52972;SDS011;38837;48.916;2.336;2023-07-13T01:40:18;4.45;;;1.30;;
52972;SDS011;38837;48.916;2.336;2023-07-13T01:42:21;2.17;;;1.40;;
52972;SDS011;38837;48.916;2.336;2023-07-13T01:44:23;3.83;;;1.65;;
52972;SDS011;38837;48.916;2.336;2023-07-13T01:46:26;5.07;;;1.52;;
52972;SDS011;38837;48.916;2.336;2023-07-13T01:48:28;3.95;;;1.58;;
52972;SDS011;38837;48.916;2.336;2023-07-13T01:50:30;5.10;;;1.60;;
52972;SDS011;38837;48.916;2.336;2023-07-13T01:52:32;2.33;;;1.38;;
52972;SDS011;38837;48.916;2.336;2023-07-13T01:54:34;4.38;;;1.50;;
52972;SDS011;38837;48.916;2.336;2023-07-13T01:56:36;4.38;;;1.42;;
52972;SDS011;38837;48.916;2.336;2023-07-13T01:58:38;2.67;;;1.45;;
52972;SDS011;38837;48.916;2.336;2023-07-13T02:00:41;6.15;;;1.40;;
52972;SDS011;38837;48.916;2.336;2023-07-13T02:02:43;3.28;;;1.35;;
52972;SDS011;38837;48.916;2.336;2023-07-13T02:04:46;4.30;;;1.30;;
52972;SDS011;38837;48.916;2.336;2023-07-13T02:06:49;3.45;;;1.55;;
52972;SDS011;38837;48.916;2.336;2023-07-13T02:08:51;3.25;;;1.17;;
52972;SDS011;38837;48.916;2.336;2023-07-13T02:10:52;4.57;;;1.50;;
52972;SDS011;38837;48.916;2.336;2023-07-13T02:12:54;2.25;;;1.30;;
52972;SDS011;38837;48.916;2.336;2023-07-13T02:14:56;5.45;;;1.50;;
52972;SDS011;38837;48.916;2.336;2023-07-13T02:16:58;2.65;;;1.30;;
52972;SDS011;38837;48.916;2.336;2023-07-13T02:19:00;2.70;;;1.30;;
52972;SDS011;38837;48.916;2.336;2023-07-13T02:21:02;2.22;;;1.10;;
52972;SDS011;38837;48.916;2.336;2023-07-13T02:23:04;3.03;;;1.30;;
52972;SDS011;38837;48.916;2.336;2023-07-13T02:25:10;2.28;;;1.20;;
52972;SDS011;38837;48.916;2.336;2023-07-13T02:27:18;3.70;;;1.50;;
52972;SDS011;38837;48.916;2.336;2023-07-13T02:29:20;3.85;;;1.40;;
52972;SDS011;38837;48.916;2.336;2023-07-13T02:31:22;4.00;;;1.55;;
52972;SDS011;38837;48.916;2.336;2023-07-13T02:33:25;6.45;;;1.98;;
52972;SDS011;38837;48.916;2.336;2023-07-13T02:35:26;3.53;;;1.52;;
52972;SDS011;38837;48.916;2.336;2023-07-13T02:37:28;2.33;;;1.40;;
52972;SDS011;38837;48.916;2.336;2023-07-13T02:39:31;3.33;;;1.52;;
52972;SDS011;38837;48.916;2.336;2023-07-13T02:41:34;4.80;;;1.40;;
52972;SDS011;38837;48.916;2.336;2023-07-13T02:43:36;3.47;;;1.10;;
52972;SDS011;38837;48.916;2.336;2023-07-13T02:45:38;3.38;;;1.40;;
52972;SDS011;38837;48.916;2.336;2023-07-13T02:47:45;5.25;;;1.50;;
52972;SDS011;38837;48.916;2.336;2023-07-13T02:49:47;4.75;;;1.80;;
52972;SDS011;38837;48.916;2.336;2023-07-13T02:51:51;2.78;;;1.45;;
52972;SDS011;38837;48.916;2.336;2023-07-13T02:53:53;3.67;;;1.65;;
52972;SDS011;38837;48.916;2.336;2023-07-13T02:55:54;4.45;;;1.60;;
52972;SDS011;38837;48.916;2.336;2023-07-13T02:57:56;1.88;;;1.33;;
52972;SDS011;38837;48.916;2.336;2023-07-13T03:00:00;2.05;;;1.48;;
52972;SDS011;38837;48.916;2.336;2023-07-13T03:02:06;3.03;;;1.45;;
52972;SDS011;38837;48.916;2.336;2023-07-13T03:04:08;6.32;;;1.65;;
52972;SDS011;38837;48.916;2.336;2023-07-13T03:06:10;3.80;;;1.55;;
52972;SDS011;38837;48.916;2.336;2023-07-13T03:08:13;3.72;;;1.50;;
52972;SDS011;38837;48.916;2.336;2023-07-13T03:10:15;3.47;;;1.52;;
52972;SDS011;38837;48.916;2.336;2023-07-13T03:12:17;3.92;;;1.42;;
52972;SDS011;38837;48.916;2.336;2023-07-13T03:14:19;4.05;;;1.65;;
52972;SDS011;38837;48.916;2.336;2023-07-13T03:16:21;3.88;;;1.50;;
52972;SDS011;38837;48.916;2.336;2023-07-13T03:18:26;3.85;;;1.30;;
52972;SDS011;38837;48.916;2.336;2023-07-13T03:20:31;3.97;;;1.45;;
52972;SDS011;38837;48.916;2.336;2023-07-13T03:22:34;3.15;;;1.35;;
52972;SDS011;38837;48.916;2.336;2023-07-13T03:24:36;5.22;;;1.88;;
52972;SDS011;38837;48.916;2.336;2023-07-13T03:26:40;2.72;;;1.13;;
52972;SDS011;38837;48.916;2.336;2023-07-13T03:28:42;4.93;;;1.65;;
52972;SDS011;38837;48.916;2.336;2023-07-13T03:30:44;2.08;;;1.38;;
52972;SDS011;38837;48.916;2.336;2023-07-13T03:32:46;3.05;;;1.50;;
52972;SDS011;38837;48.916;2.336;2023-07-13T03:34:48;3.65;;;1.52;;
52972;SDS011;38837;48.916;2.336;2023-07-13T03:36:50;3.97;;;1.50;;
52972;SDS011;38837;48.916;2.336;2023-07-13T03:38:57;5.78;;;1.50;;
52972;SDS011;38837;48.916;2.336;2023-07-13T03:41:01;5.00;;;1.67;;
52972;SDS011;38837;48.916;2.336;2023-07-13T03:43:03;4.78;;;1.75;;
52972;SDS011;38837;48.916;2.336;2023-07-13T03:45:05;2.05;;;1.30;;
52972;SDS011;38837;48.916;2.336;2023-07-13T03:47:07;3.05;;;1.40;;
52972;SDS011;38837;48.916;2.336;2023-07-13T03:49:10;4.18;;;1.50;;
52972;SDS011;38837;48.916;2.336;2023-07-13T03:51:13;5.28;;;1.42;;
52972;SDS011;38837;48.916;2.336;2023-07-13T03:55:22;4.00;;;1.52;;
52972;SDS011;38837;48.916;2.336;2023-07-13T03:57:24;4.22;;;1.45;;
52972;SDS011;38837;48.916;2.336;2023-07-13T03:59:26;2.40;;;1.40;;
52972;SDS011;38837;48.916;2.336;2023-07-13T04:01:28;5.82;;;1.35;;
52972;SDS011;38837;48.916;2.336;2023-07-13T04:03:30;3.10;;;1.30;;
52972;SDS011;38837;48.916;2.336;2023-07-13T04:07:37;3.75;;;1.38;;
52972;SDS011;38837;48.916;2.336;2023-07-13T04:09:39;4.78;;;1.60;;
52972;SDS011;38837;48.916;2.336;2023-07-13T04:11:41;3.28;;;1.63;;
52972;SDS011;38837;48.916;2.336;2023-07-13T04:13:48;2.13;;;1.30;;
52972;SDS011;38837;48.916;2.336;2023-07-13T04:15:51;3.40;;;1.27;;
52972;SDS011;38837;48.916;2.336;2023-07-13T04:17:54;4.45;;;1.10;;
52972;SDS011;38837;48.916;2.336;2023-07-13T04:19:56;3.03;;;1.33;;
52972;SDS011;38837;48.916;2.336;2023-07-13T04:21:58;3.42;;;1.50;;
52972;SDS011;38837;48.916;2.336;2023-07-13T04:24:00;2.35;;;1.30;;
52972;SDS011;38837;48.916;2.336;2023-07-13T04:26:02;4.60;;;1.25;;
52972;SDS011;38837;48.916;2.336;2023-07-13T04:28:04;3.63;;;1.13;;
52972;SDS011;38837;48.916;2.336;2023-07-13T04:30:08;2.67;;;1.30;;
52972;SDS011;38837;48.916;2.336;2023-07-13T04:32:10;2.85;;;1.10;;
52972;SDS011;38837;48.916;2.336;2023-07-13T04:34:13;7.10;;;1.70;;
52972;SDS011;38837;48.916;2.336;2023-07-13T04:36:15;4.10;;;1.42;;
52972;SDS011;38837;48.916;2.336;2023-07-13T04:38:18;6.82;;;1.45;;
52972;SDS011;38837;48.916;2.336;2023-07-13T04:40:20;3.58;;;1.70;;
52972;SDS011;38837;48.916;2.336;2023-07-13T04:42:22;4.28;;;1.27;;
52972;SDS011;38837;48.916;2.336;2023-07-13T04:44:23;2.63;;;1.15;;
52972;SDS011;38837;48.916;2.336;2023-07-13T04:46:25;3.63;;;1.77;;
52972;SDS011;38837;48.916;2.336;2023-07-13T04:48:28;6.28;;;1.58;;
52972;SDS011;38837;48.916;2.336;2023-07-13T04:50:29;3.70;;;1.40;;
52972;SDS011;38837;48.916;2.336;2023-07-13T04:52:31;4.18;;;1.65;;
52972;SDS011;38837;48.916;2.336;2023-07-13T04:54:34;3.85;;;1.33;;
52972;SDS011;38837;48.916;2.336;2023-07-13T04:56:36;3.65;;;1.42;;
52972;SDS011;38837;48.916;2.336;2023-07-13T04:58:38;4.25;;;1.30;;
52972;SDS011;38837;48.916;2.336;2023-07-13T05:00:41;3.15;;;1.10;;
52972;SDS011;38837;48.916;2.336;2023-07-13T05:02:44;2.13;;;1.35;;
52972;SDS011;38837;48.916;2.336;2023-07-13T05:06:49;3.75;;;1.58;;
52972;SDS011;38837;48.916;2.336;2023-07-13T05:08:51;3.55;;;1.35;;
52972;SDS011;38837;48.916;2.336;2023-07-13T05:10:59;2.90;;;1.63;;
52972;SDS011;38837;48.916;2.336;2023-07-13T05:13:02;3.72;;;1.50;;
52972;SDS011;38837;48.916;2.336;2023-07-13T05:15:04;3.03;;;1.30;;
52972;SDS011;38837;48.916;2.336;2023-07-13T05:17:07;4.57;;;1.40;;
52972;SDS011;38837;48.916;2.336;2023-07-13T05:19:11;5.20;;;1.98;;
52972;SDS011;38837;48.916;2.336;2023-07-13T05:21:14;3.08;;;1.80;;
52972;SDS011;38837;48.916;2.336;2023-07-13T05:23:16;4.25;;;1.77;;
52972;SDS011;38837;48.916;2.336;2023-07-13T05:25:18;6.55;;;1.90;;
52972;SDS011;38837;48.916;2.336;2023-07-13T05:27:20;3.45;;;1.90;;
52972;SDS011;38837;48.916;2.336;2023-07-13T05:29:27;5.57;;;1.58;;
52972;SDS011;38837;48.916;2.336;2023-07-13T05:31:29;5.43;;;1.80;;
52972;SDS011;38837;48.916;2.336;2023-07-13T05:33:35;4.15;;;1.58;;
52972;SDS011;38837;48.916;2.336;2023-07-13T05:35:38;3.42;;;1.52;;
52972;SDS011;38837;48.916;2.336;2023-07-13T05:37:40;2.97;;;1.75;;
52972;SDS011;38837;48.916;2.336;2023-07-13T05:39:41;3.88;;;1.73;;
52972;SDS011;38837;48.916;2.336;2023-07-13T05:41:43;3.88;;;1.90;;
52972;SDS011;38837;48.916;2.336;2023-07-13T05:43:45;3.70;;;2.00;;
52972;SDS011;38837;48.916;2.336;2023-07-13T05:45:48;4.88;;;1.95;;
52972;SDS011;38837;48.916;2.336;2023-07-13T05:47:51;7.05;;;1.80;;
52972;SDS011;38837;48.916;2.336;2023-07-13T05:49:53;5.70;;;1.90;;
52972;SDS011;38837;48.916;2.336;2023-07-13T05:51:55;5.70;;;1.67;;
52972;SDS011;38837;48.916;2.336;2023-07-13T05:53:57;5.35;;;2.15;;
52972;SDS011;38837;48.916;2.336;2023-07-13T05:55:59;5.25;;;1.95;;
52972;SDS011;38837;48.916;2.336;2023-07-13T05:58:03;4.20;;;1.90;;
52972;SDS011;38837;48.916;2.336;2023-07-13T06:00:05;4.20;;;1.65;;
52972;SDS011;38837;48.916;2.336;2023-07-13T06:02:09;4.82;;;2.20;;
52972;SDS011;38837;48.916;2.336;2023-07-13T06:04:12;4.15;;;1.80;;
52972;SDS011;38837;48.916;2.336;2023-07-13T06:06:14;7.53;;;2.03;;
52972;SDS011;38837;48.916;2.336;2023-07-13T06:08:17;4.88;;;2.10;;
52972;SDS011;38837;48.916;2.336;2023-07-13T06:10:19;6.07;;;2.25;;
52972;SDS011;38837;48.916;2.336;2023-07-13T06:12:23;3.97;;;2.00;;
52972;SDS011;38837;48.916;2.336;2023-07-13T06:14:26;7.57;;;1.85;;
52972;SDS011;38837;48.916;2.336;2023-07-13T06:16:28;6.55;;;1.88;;
52972;SDS011;38837;48.916;2.336;2023-07-13T06:18:31;4.88;;;1.73;;
52972;SDS011;38837;48.916;2.336;2023-07-13T06:20:34;5.03;;;1.70;;
52972;SDS011;38837;48.916;2.336;2023-07-13T06:22:36;4.63;;;1.67;;
52972;SDS011;38837;48.916;2.336;2023-07-13T06:24:38;2.58;;;1.48;;
52972;SDS011;38837;48.916;2.336;2023-07-13T06:26:40;3.63;;;1.52;;
52972;SDS011;38837;48.916;2.336;2023-07-13T06:28:42;5.03;;;1.70;;
52972;SDS011;38837;48.916;2.336;2023-07-13T06:30:45;4.05;;;1.83;;
52972;SDS011;38837;48.916;2.336;2023-07-13T06:32:47;4.70;;;2.13;;
52972;SDS011;38837;48.916;2.336;2023-07-13T06:34:49;6.63;;;1.73;;
52972;SDS011;38837;48.916;2.336;2023-07-13T06:36:53;5.28;;;1.98;;
52972;SDS011;38837;48.916;2.336;2023-07-13T06:38:55;8.80;;;1.80;;
52972;SDS011;38837;48.916;2.336;2023-07-13T06:40:57;3.58;;;1.77;;
52972;SDS011;38837;48.916;2.336;2023-07-13T06:42:59;4.75;;;1.92;;
52972;SDS011;38837;48.916;2.336;2023-07-13T06:45:01;7.43;;;2.28;;
52972;SDS011;38837;48.916;2.336;2023-07-13T06:47:03;3.60;;;1.75;;
52972;SDS011;38837;48.916;2.336;2023-07-13T06:49:09;3.58;;;1.50;;
52972;SDS011;38837;48.916;2.336;2023-07-13T06:51:10;4.45;;;1.83;;
52972;SDS011;38837;48.916;2.336;2023-07-13T06:53:13;4.53;;;1.98;;
52972;SDS011;38837;48.916;2.336;2023-07-13T06:55:15;3.30;;;1.50;;
52972;SDS011;38837;48.916;2.336;2023-07-13T06:57:17;4.55;;;1.40;;
52972;SDS011;38837;48.916;2.336;2023-07-13T06:59:19;3.65;;;1.67;;
52972;SDS011;38837;48.916;2.336;2023-07-13T07:01:21;6.30;;;1.92;;
52972;SDS011;38837;48.916;2.336;2023-07-13T07:03:22;6.57;;;2.17;;
52972;SDS011;38837;48.916;2.336;2023-07-13T07:05:25;3.40;;;1.50;;
52972;SDS011;38837;48.916;2.336;2023-07-13T07:07:26;7.05;;;1.88;;
52972;SDS011;38837;48.916;2.336;2023-07-13T07:09:28;8.65;;;1.42;;
52972;SDS011;38837;48.916;2.336;2023-07-13T07:11:34;2.67;;;1.60;;
52972;SDS011;38837;48.916;2.336;2023-07-13T07:13:36;5.18;;;2.05;;
52972;SDS011;38837;48.916;2.336;2023-07-13T07:15:38;6.65;;;1.90;;
52972;SDS011;38837;48.916;2.336;2023-07-13T07:17:40;4.35;;;1.70;;
52972;SDS011;38837;48.916;2.336;2023-07-13T07:19:42;4.60;;;1.38;;
52972;SDS011;38837;48.916;2.336;2023-07-13T07:21:44;7.10;;;1.85;;
52972;SDS011;38837;48.916;2.336;2023-07-13T07:23:46;6.95;;;1.70;;
52972;SDS011;38837;48.916;2.336;2023-07-13T07:25:48;7.18;;;2.28;;
52972;SDS011;38837;48.916;2.336;2023-07-13T07:27:50;4.15;;;1.80;;
52972;SDS011;38837;48.916;2.336;2023-07-13T07:29:55;5.13;;;2.20;;
52972;SDS011;38837;48.916;2.336;2023-07-13T07:32:01;4.53;;;1.90;;
52972;SDS011;38837;48.916;2.336;2023-07-13T07:34:18;3.67;;;1.50;;
52972;SDS011;38837;48.916;2.336;2023-07-13T07:36:20;4.40;;;1.73;;
52972;SDS011;38837;48.916;2.336;2023-07-13T07:38:25;5.05;;;1.80;;
52972;SDS011;38837;48.916;2.336;2023-07-13T07:40:27;5.68;;;2.25;;
52972;SDS011;38837;48.916;2.336;2023-07-13T07:42:32;4.20;;;1.70;;
52972;SDS011;38837;48.916;2.336;2023-07-13T07:44:35;6.15;;;1.55;;
52972;SDS011;38837;48.916;2.336;2023-07-13T07:46:37;6.25;;;1.60;;
52972;SDS011;38837;48.916;2.336;2023-07-13T07:48:42;6.47;;;1.80;;
52972;SDS011;38837;48.916;2.336;2023-07-13T07:50:44;3.67;;;1.70;;
52972;SDS011;38837;48.916;2.336;2023-07-13T07:52:46;6.65;;;1.90;;
52972;SDS011;38837;48.916;2.336;2023-07-13T07:54:48;5.15;;;1.83;;
52972;SDS011;38837;48.916;2.336;2023-07-13T07:56:53;3.53;;;1.38;;
52972;SDS011;38837;48.916;2.336;2023-07-13T07:58:58;7.00;;;1.77;;
52972;SDS011;38837;48.916;2.336;2023-07-13T08:01:03;5.38;;;1.98;;
52972;SDS011;38837;48.916;2.336;2023-07-13T08:03:09;2.97;;;1.85;;
52972;SDS011;38837;48.916;2.336;2023-07-13T08:05:14;4.57;;;1.83;;
52972;SDS011;38837;48.916;2.336;2023-07-13T08:07:19;4.90;;;1.77;;
52972;SDS011;38837;48.916;2.336;2023-07-13T08:09:21;3.38;;;1.60;;
52972;SDS011;38837;48.916;2.336;2023-07-13T08:11:23;4.13;;;1.80;;
52972;SDS011;38837;48.916;2.336;2023-07-13T08:13:28;6.35;;;2.40;;
52972;SDS011;38837;48.916;2.336;2023-07-13T08:15:30;5.47;;;1.75;;
52972;SDS011;38837;48.916;2.336;2023-07-13T08:17:32;8.32;;;2.17;;
52972;SDS011;38837;48.916;2.336;2023-07-13T08:19:34;3.97;;;1.73;;
52972;SDS011;38837;48.916;2.336;2023-07-13T08:21:36;4.90;;;1.70;;
52972;SDS011;38837;48.916;2.336;2023-07-13T08:23:41;3.25;;;1.70;;
52972;SDS011;38837;48.916;2.336;2023-07-13T08:25:43;3.90;;;1.60;;
52972;SDS011;38837;48.916;2.336;2023-07-13T08:27:55;6.32;;;1.80;;
52972;SDS011;38837;48.916;2.336;2023-07-13T08:29:57;7.85;;;2.03;;
52972;SDS011;38837;48.916;2.336;2023-07-13T08:31:59;4.65;;;1.73;;
52972;SDS011;38837;48.916;2.336;2023-07-13T08:34:01;8.65;;;1.88;;
52972;SDS011;38837;48.916;2.336;2023-07-13T08:36:03;5.70;;;2.20;;
52972;SDS011;38837;48.916;2.336;2023-07-13T08:38:06;5.25;;;1.48;;
52972;SDS011;38837;48.916;2.336;2023-07-13T08:40:09;4.80;;;1.73;;
52972;SDS011;38837;48.916;2.336;2023-07-13T08:42:14;4.75;;;1.63;;
52972;SDS011;38837;48.916;2.336;2023-07-13T08:44:26;4.03;;;1.80;;
52972;SDS011;38837;48.916;2.336;2023-07-13T08:46:38;3.92;;;1.60;;
52972;SDS011;38837;48.916;2.336;2023-07-13T08:48:47;4.43;;;1.85;;
52972;SDS011;38837;48.916;2.336;2023-07-13T08:51:00;5.30;;;1.70;;
52972;SDS011;38837;48.916;2.336;2023-07-13T08:53:22;5.63;;;1.95;;
52972;SDS011;38837;48.916;2.336;2023-07-13T08:55:30;7.00;;;1.77;;
52972;SDS011;38837;48.916;2.336;2023-07-13T08:57:35;4.72;;;1.88;;
52972;SDS011;38837;48.916;2.336;2023-07-13T08:59:37;6.28;;;1.70;;
52972;SDS011;38837;48.916;2.336;2023-07-13T09:06:21;5.18;;;1.70;;
52972;SDS011;38837;48.916;2.336;2023-07-13T09:08:48;3.17;;;1.67;;
52972;SDS011;38837;48.916;2.336;2023-07-13T09:15:58;2.30;;;1.33;;
52972;SDS011;38837;48.916;2.336;2023-07-13T09:18:06;3.53;;;1.58;;
52972;SDS011;38837;48.916;2.336;2023-07-13T09:20:34;3.55;;;1.77;;
52972;SDS011;38837;48.916;2.336;2023-07-13T09:22:47;5.03;;;1.50;;
52972;SDS011;38837;48.916;2.336;2023-07-13T09:24:52;3.40;;;1.50;;
52972;SDS011;38837;48.916;2.336;2023-07-13T09:26:59;4.78;;;1.60;;
52972;SDS011;38837;48.916;2.336;2023-07-13T09:29:10;2.83;;;1.30;;
52972;SDS011;38837;48.916;2.336;2023-07-13T09:31:23;4.32;;;1.50;;
52972;SDS011;38837;48.916;2.336;2023-07-13T09:33:32;5.20;;;1.70;;
52972;SDS011;38837;48.916;2.336;2023-07-13T09:35:36;4.15;;;1.92;;
52972;SDS011;38837;48.916;2.336;2023-07-13T09:37:38;5.20;;;1.75;;
52972;SDS011;38837;48.916;2.336;2023-07-13T09:39:42;4.95;;;1.48;;
52972;SDS011;38837;48.916;2.336;2023-07-13T09:42:01;9.10;;;2.13;;
52972;SDS011;38837;48.916;2.336;2023-07-13T09:44:14;7.15;;;1.90;;
52972;SDS011;38837;48.916;2.336;2023-07-13T09:46:21;14.48;;;2.25;;
52972;SDS011;38837;48.916;2.336;2023-07-13T09:48:24;17.30;;;2.50;;
52972;SDS011;38837;48.916;2.336;2023-07-13T09:50:26;14.60;;;2.55;;
52972;SDS011;38837;48.916;2.336;2023-07-13T09:52:41;22.45;;;3.08;;
52972;SDS011;38837;48.916;2.336;2023-07-13T09:54:45;32.75;;;3.03;;
52972;SDS011;38837;48.916;2.336;2023-07-13T09:56:54;18.45;;;2.80;;
52972;SDS011;38837;48.916;2.336;2023-07-13T09:59:00;24.13;;;2.70;;
52972;SDS011;38837;48.916;2.336;2023-07-13T10:01:02;12.80;;;2.33;;
52972;SDS011;38837;48.916;2.336;2023-07-13T10:03:18;15.68;;;2.63;;
52972;SDS011;38837;48.916;2.336;2023-07-13T10:05:23;14.10;;;1.75;;
52972;SDS011;38837;48.916;2.336;2023-07-13T10:07:26;12.48;;;2.30;;
52972;SDS011;38837;48.916;2.336;2023-07-13T10:09:30;9.05;;;2.10;;
52972;SDS011;38837;48.916;2.336;2023-07-13T10:11:34;8.20;;;2.08;;
52972;SDS011;38837;48.916;2.336;2023-07-13T10:13:45;15.57;;;2.72;;
52972;SDS011;38837;48.916;2.336;2023-07-13T10:15:47;6.22;;;1.80;;
52972;SDS011;38837;48.916;2.336;2023-07-13T10:17:52;8.32;;;2.42;;
52972;SDS011;38837;48.916;2.336;2023-07-13T10:19:58;8.05;;;2.47;;
52972;SDS011;38837;48.916;2.336;2023-07-13T10:24:23;12.00;;;1.73;;
52972;SDS011;38837;48.916;2.336;2023-07-13T10:26:41;8.85;;;1.95;;
52972;SDS011;38837;48.916;2.336;2023-07-13T10:28:49;9.80;;;1.95;;
52972;SDS011;38837;48.916;2.336;2023-07-13T10:30:56;7.32;;;1.77;;
52972;SDS011;38837;48.916;2.336;2023-07-13T10:33:02;6.00;;;2.05;;
52972;SDS011;38837;48.916;2.336;2023-07-13T10:35:09;7.32;;;1.52;;
52972;SDS011;38837;48.916;2.336;2023-07-13T10:37:24;5.97;;;1.90;;
52972;SDS011;38837;48.916;2.336;2023-07-13T10:41:33;10.10;;;1.80;;
52972;SDS011;38837;48.916;2.336;2023-07-13T10:43:46;7.05;;;2.25;;
52972;SDS011;38837;48.916;2.336;2023-07-13T10:45:52;7.50;;;1.83;;
52972;SDS011;38837;48.916;2.336;2023-07-13T10:47:55;7.07;;;1.92;;
52972;SDS011;38837;48.916;2.336;2023-07-13T10:49:58;15.43;;;2.08;;
52972;SDS011;38837;48.916;2.336;2023-07-13T10:52:01;5.90;;;1.60;;
52972;SDS011;38837;48.916;2.336;2023-07-13T10:58:38;7.45;;;2.10;;
52972;SDS011;38837;48.916;2.336;2023-07-13T11:00:48;6.55;;;1.67;;
52972;SDS011;38837;48.916;2.336;2023-07-13T11:02:56;4.95;;;2.03;;
52972;SDS011;38837;48.916;2.336;2023-07-13T11:05:13;7.30;;;2.00;;
52972;SDS011;38837;48.916;2.336;2023-07-13T11:07:29;8.43;;;2.30;;
52972;SDS011;38837;48.916;2.336;2023-07-13T11:09:35;13.00;;;2.05;;
52972;SDS011;38837;48.916;2.336;2023-07-13T11:11:42;10.48;;;1.65;;
52972;SDS011;38837;48.916;2.336;2023-07-13T11:15:47;8.70;;;2.47;;
52972;SDS011;38837;48.916;2.336;2023-07-13T11:17:50;6.72;;;1.52;;
52972;SDS011;38837;48.916;2.336;2023-07-13T11:20:09;4.70;;;1.63;;
52972;SDS011;38837;48.916;2.336;2023-07-13T11:22:16;10.30;;;2.22;;
52972;SDS011;38837;48.916;2.336;2023-07-13T11:24:22;6.07;;;1.88;;
52972;SDS011;38837;48.916;2.336;2023-07-13T11:28:47;9.27;;;2.03;;
52972;SDS011;38837;48.916;2.336;2023-07-13T11:33:03;10.93;;;2.30;;
52972;SDS011;38837;48.916;2.336;2023-07-13T11:35:21;7.78;;;1.75;;
52972;SDS011;38837;48.916;2.336;2023-07-13T11:37:25;8.52;;;1.80;;
52972;SDS011;38837;48.916;2.336;2023-07-13T11:39:30;18.88;;;3.05;;
52972;SDS011;38837;48.916;2.336;2023-07-13T11:41:35;17.25;;;2.20;;
52972;SDS011;38837;48.916;2.336;2023-07-13T11:43:44;9.70;;;2.03;;
52972;SDS011;38837;48.916;2.336;2023-07-13T11:45:49;11.27;;;1.80;;
52972;SDS011;38837;48.916;2.336;2023-07-13T11:47:51;15.07;;;2.13;;
52972;SDS011;38837;48.916;2.336;2023-07-13T11:49:54;7.07;;;2.13;;
52972;SDS011;38837;48.916;2.336;2023-07-13T11:52:01;6.00;;;1.90;;
52972;SDS011;38837;48.916;2.336;2023-07-13T11:54:14;12.73;;;2.38;;
52972;SDS011;38837;48.916;2.336;2023-07-13T11:56:20;6.50;;;2.00;;
52972;SDS011;38837;48.916;2.336;2023-07-13T11:58:24;15.73;;;2.72;;
52972;SDS011;38837;48.916;2.336;2023-07-13T12:00:29;7.53;;;2.03;;
52972;SDS011;38837;48.916;2.336;2023-07-13T12:02:40;9.70;;;1.95;;
52972;SDS011;38837;48.916;2.336;2023-07-13T12:04:46;10.57;;;2.65;;
52972;SDS011;38837;48.916;2.336;2023-07-13T12:06:54;14.10;;;2.50;;
52972;SDS011;38837;48.916;2.336;2023-07-13T12:09:13;10.73;;;2.40;;
52972;SDS011;38837;48.916;2.336;2023-07-13T12:11:19;6.85;;;2.20;;
52972;SDS011;38837;48.916;2.336;2023-07-13T12:13:21;13.43;;;2.55;;
52972;SDS011;38837;48.916;2.336;2023-07-13T12:15:28;11.43;;;2.60;;
52972;SDS011;38837;48.916;2.336;2023-07-13T12:17:38;11.27;;;2.22;;
52972;SDS011;38837;48.916;2.336;2023-07-13T12:19:41;14.95;;;2.75;;
52972;SDS011;38837;48.916;2.336;2023-07-13T12:21:43;19.73;;;2.60;;
52972;SDS011;38837;48.916;2.336;2023-07-13T12:23:47;19.02;;;2.90;;
52972;SDS011;38837;48.916;2.336;2023-07-13T12:25:51;21.65;;;3.13;;
52972;SDS011;38837;48.916;2.336;2023-07-13T12:27:53;15.60;;;2.45;;
52972;SDS011;38837;48.916;2.336;2023-07-13T12:30:02;23.17;;;3.20;;
52972;SDS011;38837;48.916;2.336;2023-07-13T12:32:14;31.20;;;3.22;;
52972;SDS011;38837;48.916;2.336;2023-07-13T12:34:20;52.78;;;5.53;;
52972;SDS011;38837;48.916;2.336;2023-07-13T12:36:23;86.47;;;6.63;;
52972;SDS011;38837;48.916;2.336;2023-07-13T12:38:25;34.78;;;3.65;;
52972;SDS011;38837;48.916;2.336;2023-07-13T12:40:31;40.60;;;4.10;;
52972;SDS011;38837;48.916;2.336;2023-07-13T12:42:37;30.20;;;3.42;;
52972;SDS011;38837;48.916;2.336;2023-07-13T12:44:41;26.50;;;5.10;;
52972;SDS011;38837;48.916;2.336;2023-07-13T12:46:54;16.48;;;4.20;;
52972;SDS011;38837;48.916;2.336;2023-07-13T12:49:13;23.48;;;3.45;;
52972;SDS011;38837;48.916;2.336;2023-07-13T12:51:24;22.15;;;3.17;;
52972;SDS011;38837;48.916;2.336;2023-07-13T12:53:28;25.58;;;3.15;;
52972;SDS011;38837;48.916;2.336;2023-07-13T12:55:40;13.73;;;2.85;;
52972;SDS011;38837;48.916;2.336;2023-07-13T12:57:55;15.48;;;2.90;;
52972;SDS011;38837;48.916;2.336;2023-07-13T13:00:01;10.80;;;3.05;;
52972;SDS011;38837;48.916;2.336;2023-07-13T13:04:23;9.75;;;2.65;;
52972;SDS011;38837;48.916;2.336;2023-07-13T13:06:27;20.02;;;2.78;;